sensor_id;sensor_type;location;lat;lon;timestamp;P1;durP1;ratioP1;P2;durP2;ratioP2
35977;SDS011;22056;0.000;0.000;2022-09-21T00:01:27;0.82;;;0.60;;
35977;SDS011;22056;0.000;0.000;2022-09-21T00:03:54;2.22;;;0.80;;
35977;SDS011;22056;0.000;0.000;2022-09-21T00:06:21;2.00;;;0.65;;
35977;SDS011;22056;0.000;0.000;2022-09-21T00:08:48;1.60;;;0.55;;
35977;SDS011;22056;0.000;0.000;2022-09-21T00:11:15;2.03;;;0.50;;
35977;SDS011;22056;0.000;0.000;2022-09-21T00:13:41;1.98;;;0.60;;
35977;SDS011;22056;0.000;0.000;2022-09-21T00:16:10;1.25;;;0.50;;
35977;SDS011;22056;0.000;0.000;2022-09-21T00:18:36;0.93;;;0.40;;
35977;SDS011;22056;0.000;0.000;2022-09-21T00:21:10;2.72;;;0.73;;
35977;SDS011;22056;0.000;0.000;2022-09-21T00:23:37;2.50;;;0.50;;
35977;SDS011;22056;0.000;0.000;2022-09-21T00:26:04;2.17;;;0.50;;
35977;SDS011;22056;0.000;0.000;2022-09-21T00:28:30;0.85;;;0.50;;
35977;SDS011;22056;0.000;0.000;2022-09-21T00:31:00;0.82;;;0.40;;
35977;SDS011;22056;0.000;0.000;2022-09-21T00:33:26;0.90;;;0.50;;
35977;SDS011;22056;0.000;0.000;2022-09-21T00:35:52;0.88;;;0.30;;
35977;SDS011;22056;0.000;0.000;2022-09-21T00:38:18;1.20;;;0.35;;
35977;SDS011;22056;0.000;0.000;2022-09-21T00:40:45;1.95;;;0.85;;
35977;SDS011;22056;0.000;0.000;2022-09-21T00:43:12;0.95;;;0.50;;
35977;SDS011;22056;0.000;0.000;2022-09-21T00:45:38;1.00;;;0.32;;
35977;SDS011;22056;0.000;0.000;2022-09-21T00:48:04;1.92;;;0.38;;
35977;SDS011;22056;0.000;0.000;2022-09-21T00:50:30;1.52;;;0.60;;
35977;SDS011;22056;0.000;0.000;2022-09-21T00:52:57;0.70;;;0.50;;
35977;SDS011;22056;0.000;0.000;2022-09-21T00:55:25;1.00;;;0.40;;
35977;SDS011;22056;0.000;0.000;2022-09-21T00:57:54;0.70;;;0.40;;
35977;SDS011;22056;0.000;0.000;2022-09-21T01:00:22;0.80;;;0.40;;
35977;SDS011;22056;0.000;0.000;2022-09-21T01:02:48;0.95;;;0.40;;
35977;SDS011;22056;0.000;0.000;2022-09-21T01:05:14;1.58;;;0.40;;
35977;SDS011;22056;0.000;0.000;2022-09-21T01:07:42;1.02;;;0.40;;
35977;SDS011;22056;0.000;0.000;2022-09-21T01:10:10;0.98;;;0.50;;
35977;SDS011;22056;0.000;0.000;2022-09-21T01:17:50;0.50;;;0.30;;
35977;SDS011;22056;0.000;0.000;2022-09-21T01:30:54;0.40;;;0.30;;
35977;SDS011;22056;0.000;0.000;2022-09-21T01:33:31;0.80;;;0.32;;
35977;SDS011;22056;0.000;0.000;2022-09-21T01:36:00;0.98;;;0.40;;
35977;SDS011;22056;0.000;0.000;2022-09-21T01:38:30;0.68;;;0.30;;
35977;SDS011;22056;0.000;0.000;2022-09-21T01:40:59;0.50;;;0.40;;
35977;SDS011;22056;0.000;0.000;2022-09-21T01:43:34;0.88;;;0.40;;
35977;SDS011;22056;0.000;0.000;2022-09-21T01:46:01;1.05;;;0.40;;
35977;SDS011;22056;0.000;0.000;2022-09-21T01:48:30;1.50;;;0.50;;
35977;SDS011;22056;0.000;0.000;2022-09-21T01:50:59;1.00;;;0.50;;
35977;SDS011;22056;0.000;0.000;2022-09-21T01:53:31;1.27;;;0.38;;
35977;SDS011;22056;0.000;0.000;2022-09-21T01:55:59;1.65;;;0.50;;
35977;SDS011;22056;0.000;0.000;2022-09-21T01:58:29;0.32;;;0.30;;
35977;SDS011;22056;0.000;0.000;2022-09-21T02:00:57;0.45;;;0.30;;
35977;SDS011;22056;0.000;0.000;2022-09-21T02:03:40;0.70;;;0.30;;
35977;SDS011;22056;0.000;0.000;2022-09-21T02:06:08;0.90;;;0.30;;
35977;SDS011;22056;0.000;0.000;2022-09-21T02:08:34;0.68;;;0.40;;
35977;SDS011;22056;0.000;0.000;2022-09-21T02:11:01;0.63;;;0.30;;
35977;SDS011;22056;0.000;0.000;2022-09-21T02:13:30;0.50;;;0.30;;
35977;SDS011;22056;0.000;0.000;2022-09-21T02:20:56;2.08;;;0.32;;
35977;SDS011;22056;0.000;0.000;2022-09-21T02:23:25;1.15;;;0.40;;
35977;SDS011;22056;0.000;0.000;2022-09-21T02:31:29;0.30;;;0.28;;
35977;SDS011;22056;0.000;0.000;2022-09-21T02:34:03;0.77;;;0.47;;
35977;SDS011;22056;0.000;0.000;2022-09-21T02:36:33;0.40;;;0.28;;
35977;SDS011;22056;0.000;0.000;2022-09-21T02:39:05;0.50;;;0.30;;
35977;SDS011;22056;0.000;0.000;2022-09-21T02:44:23;0.30;;;0.30;;
35977;SDS011;22056;0.000;0.000;2022-09-21T02:46:52;0.40;;;0.30;;
35977;SDS011;22056;0.000;0.000;2022-09-21T02:49:20;0.80;;;0.38;;
35977;SDS011;22056;0.000;0.000;2022-09-21T02:51:51;0.52;;;0.40;;
35977;SDS011;22056;0.000;0.000;2022-09-21T02:54:19;0.55;;;0.32;;
35977;SDS011;22056;0.000;0.000;2022-09-21T02:56:47;0.88;;;0.30;;
35977;SDS011;22056;0.000;0.000;2022-09-21T02:59:15;0.45;;;0.35;;
35977;SDS011;22056;0.000;0.000;2022-09-21T03:01:42;0.55;;;0.30;;
35977;SDS011;22056;0.000;0.000;2022-09-21T03:04:08;0.55;;;0.28;;
35977;SDS011;22056;0.000;0.000;2022-09-21T03:06:35;0.80;;;0.30;;
35977;SDS011;22056;0.000;0.000;2022-09-21T03:09:01;0.43;;;0.30;;
35977;SDS011;22056;0.000;0.000;2022-09-21T03:11:27;0.40;;;0.30;;
35977;SDS011;22056;0.000;0.000;2022-09-21T03:13:54;0.20;;;0.20;;
35977;SDS011;22056;0.000;0.000;2022-09-21T03:16:20;0.98;;;0.50;;
35977;SDS011;22056;0.000;0.000;2022-09-21T03:18:48;0.70;;;0.30;;
35977;SDS011;22056;0.000;0.000;2022-09-21T03:21:14;0.75;;;0.22;;
35977;SDS011;22056;0.000;0.000;2022-09-21T03:23:40;0.55;;;0.30;;
35977;SDS011;22056;0.000;0.000;2022-09-21T03:26:06;0.47;;;0.30;;
35977;SDS011;22056;0.000;0.000;2022-09-21T03:28:32;1.45;;;0.32;;
35977;SDS011;22056;0.000;0.000;2022-09-21T03:30:59;0.52;;;0.30;;
35977;SDS011;22056;0.000;0.000;2022-09-21T03:33:25;0.20;;;0.20;;
35977;SDS011;22056;0.000;0.000;2022-09-21T03:35:51;0.70;;;0.30;;
35977;SDS011;22056;0.000;0.000;2022-09-21T03:38:18;0.65;;;0.30;;
35977;SDS011;22056;0.000;0.000;2022-09-21T03:40:46;0.80;;;0.20;;
35977;SDS011;22056;0.000;0.000;2022-09-21T03:43:12;0.40;;;0.30;;
35977;SDS011;22056;0.000;0.000;2022-09-21T03:45:38;0.80;;;0.40;;
35977;SDS011;22056;0.000;0.000;2022-09-21T03:48:06;0.65;;;0.40;;
35977;SDS011;22056;0.000;0.000;2022-09-21T03:50:32;0.20;;;0.20;;
35977;SDS011;22056;0.000;0.000;2022-09-21T03:52:58;0.43;;;0.30;;
35977;SDS011;22056;0.000;0.000;2022-09-21T03:55:25;0.40;;;0.30;;
35977;SDS011;22056;0.000;0.000;2022-09-21T03:57:51;0.35;;;0.30;;
35977;SDS011;22056;0.000;0.000;2022-09-21T04:00:18;0.68;;;0.30;;
35977;SDS011;22056;0.000;0.000;2022-09-21T04:02:44;0.50;;;0.40;;
35977;SDS011;22056;0.000;0.000;2022-09-21T04:05:11;0.55;;;0.30;;
35977;SDS011;22056;0.000;0.000;2022-09-21T04:07:39;0.30;;;0.30;;
35977;SDS011;22056;0.000;0.000;2022-09-21T04:10:06;0.20;;;0.20;;
35977;SDS011;22056;0.000;0.000;2022-09-21T04:12:33;0.45;;;0.30;;
35977;SDS011;22056;0.000;0.000;2022-09-21T04:15:00;0.55;;;0.30;;
35977;SDS011;22056;0.000;0.000;2022-09-21T04:17:27;0.38;;;0.32;;
35977;SDS011;22056;0.000;0.000;2022-09-21T04:19:54;0.52;;;0.30;;
35977;SDS011;22056;0.000;0.000;2022-09-21T04:22:28;0.52;;;0.40;;
35977;SDS011;22056;0.000;0.000;2022-09-21T04:24:55;1.35;;;0.30;;
35977;SDS011;22056;0.000;0.000;2022-09-21T04:27:21;0.50;;;0.30;;
35977;SDS011;22056;0.000;0.000;2022-09-21T04:29:48;2.20;;;0.30;;
35977;SDS011;22056;0.000;0.000;2022-09-21T04:32:14;0.63;;;0.22;;
35977;SDS011;22056;0.000;0.000;2022-09-21T04:34:40;3.10;;;0.30;;
35977;SDS011;22056;0.000;0.000;2022-09-21T04:37:07;0.57;;;0.30;;
35977;SDS011;22056;0.000;0.000;2022-09-21T04:39:33;0.75;;;0.30;;
35977;SDS011;22056;0.000;0.000;2022-09-21T04:42:00;1.08;;;0.40;;
35977;SDS011;22056;0.000;0.000;2022-09-21T04:44:26;2.20;;;0.50;;
35977;SDS011;22056;0.000;0.000;2022-09-21T04:46:54;3.03;;;0.20;;
35977;SDS011;22056;0.000;0.000;2022-09-21T04:49:20;0.90;;;0.35;;
35977;SDS011;22056;0.000;0.000;2022-09-21T04:51:46;0.88;;;0.40;;
35977;SDS011;22056;0.000;0.000;2022-09-21T04:54:13;2.55;;;0.30;;
35977;SDS011;22056;0.000;0.000;2022-09-21T04:56:39;1.75;;;0.45;;
35977;SDS011;22056;0.000;0.000;2022-09-21T04:59:05;2.45;;;0.50;;
35977;SDS011;22056;0.000;0.000;2022-09-21T05:01:31;1.50;;;0.30;;
35977;SDS011;22056;0.000;0.000;2022-09-21T05:03:57;2.63;;;0.40;;
35977;SDS011;22056;0.000;0.000;2022-09-21T05:06:28;1.08;;;0.50;;
35977;SDS011;22056;0.000;0.000;2022-09-21T05:08:55;3.78;;;0.60;;
35977;SDS011;22056;0.000;0.000;2022-09-21T05:11:39;2.15;;;0.47;;
35977;SDS011;22056;0.000;0.000;2022-09-21T05:14:06;4.60;;;0.50;;
35977;SDS011;22056;0.000;0.000;2022-09-21T05:16:33;1.15;;;0.47;;
35977;SDS011;22056;0.000;0.000;2022-09-21T05:18:59;0.80;;;0.38;;
35977;SDS011;22056;0.000;0.000;2022-09-21T05:21:25;2.42;;;0.50;;
35977;SDS011;22056;0.000;0.000;2022-09-21T05:23:51;1.73;;;0.40;;
35977;SDS011;22056;0.000;0.000;2022-09-21T05:26:18;2.67;;;0.60;;
35977;SDS011;22056;0.000;0.000;2022-09-21T05:28:44;5.72;;;0.82;;
35977;SDS011;22056;0.000;0.000;2022-09-21T05:33:57;1.08;;;0.60;;
35977;SDS011;22056;0.000;0.000;2022-09-21T05:38:50;2.45;;;0.80;;
35977;SDS011;22056;0.000;0.000;2022-09-21T05:41:17;5.05;;;0.57;;
35977;SDS011;22056;0.000;0.000;2022-09-21T05:43:43;3.03;;;0.77;;
35977;SDS011;22056;0.000;0.000;2022-09-21T05:46:19;6.93;;;0.73;;
35977;SDS011;22056;0.000;0.000;2022-09-21T05:48:54;2.30;;;0.57;;
35977;SDS011;22056;0.000;0.000;2022-09-21T05:51:28;3.63;;;0.68;;
35977;SDS011;22056;0.000;0.000;2022-09-21T05:54:07;3.53;;;0.77;;
35977;SDS011;22056;0.000;0.000;2022-09-21T05:56:46;5.28;;;0.80;;
35977;SDS011;22056;0.000;0.000;2022-09-21T06:04:28;3.65;;;0.60;;
35977;SDS011;22056;0.000;0.000;2022-09-21T06:06:54;8.57;;;0.60;;
35977;SDS011;22056;0.000;0.000;2022-09-21T06:09:20;3.72;;;0.95;;
35977;SDS011;22056;0.000;0.000;2022-09-21T06:11:46;6.57;;;0.95;;
35977;SDS011;22056;0.000;0.000;2022-09-21T06:14:13;2.53;;;0.60;;
35977;SDS011;22056;0.000;0.000;2022-09-21T06:16:40;4.15;;;0.70;;
35977;SDS011;22056;0.000;0.000;2022-09-21T06:19:09;2.83;;;0.60;;
35977;SDS011;22056;0.000;0.000;2022-09-21T06:21:36;8.38;;;1.45;;
35977;SDS011;22056;0.000;0.000;2022-09-21T06:24:02;2.67;;;0.77;;
35977;SDS011;22056;0.000;0.000;2022-09-21T06:26:28;3.63;;;0.82;;
35977;SDS011;22056;0.000;0.000;2022-09-21T06:28:54;5.40;;;0.65;;
35977;SDS011;22056;0.000;0.000;2022-09-21T06:31:20;5.00;;;0.70;;
35977;SDS011;22056;0.000;0.000;2022-09-21T06:33:46;2.38;;;0.60;;
35977;SDS011;22056;0.000;0.000;2022-09-21T06:36:13;3.00;;;0.50;;
35977;SDS011;22056;0.000;0.000;2022-09-21T06:38:39;4.50;;;0.70;;
35977;SDS011;22056;0.000;0.000;2022-09-21T06:41:05;3.88;;;1.00;;
35977;SDS011;22056;0.000;0.000;2022-09-21T06:43:31;7.53;;;0.80;;
35977;SDS011;22056;0.000;0.000;2022-09-21T06:45:58;3.80;;;0.65;;
35977;SDS011;22056;0.000;0.000;2022-09-21T06:48:25;3.15;;;0.77;;
35977;SDS011;22056;0.000;0.000;2022-09-21T06:50:59;2.05;;;0.40;;
35977;SDS011;22056;0.000;0.000;2022-09-21T06:53:26;2.47;;;0.73;;
35977;SDS011;22056;0.000;0.000;2022-09-21T06:55:53;2.42;;;0.65;;
35977;SDS011;22056;0.000;0.000;2022-09-21T06:58:19;3.30;;;0.70;;
35977;SDS011;22056;0.000;0.000;2022-09-21T07:00:45;4.50;;;0.85;;
35977;SDS011;22056;0.000;0.000;2022-09-21T07:03:11;2.33;;;0.90;;
35977;SDS011;22056;0.000;0.000;2022-09-21T07:05:37;2.17;;;0.60;;
35977;SDS011;22056;0.000;0.000;2022-09-21T07:08:04;2.10;;;0.80;;
35977;SDS011;22056;0.000;0.000;2022-09-21T07:10:30;3.38;;;0.70;;
35977;SDS011;22056;0.000;0.000;2022-09-21T07:13:03;7.75;;;0.80;;
35977;SDS011;22056;0.000;0.000;2022-09-21T07:15:30;5.30;;;0.85;;
35977;SDS011;22056;0.000;0.000;2022-09-21T07:17:56;4.45;;;0.60;;
35977;SDS011;22056;0.000;0.000;2022-09-21T07:20:23;3.03;;;0.90;;
35977;SDS011;22056;0.000;0.000;2022-09-21T07:22:49;3.25;;;0.77;;
35977;SDS011;22056;0.000;0.000;2022-09-21T07:25:15;2.28;;;0.60;;
35977;SDS011;22056;0.000;0.000;2022-09-21T07:27:41;4.97;;;0.70;;
35977;SDS011;22056;0.000;0.000;2022-09-21T07:30:08;5.78;;;1.00;;
35977;SDS011;22056;0.000;0.000;2022-09-21T07:32:34;3.97;;;1.10;;
35977;SDS011;22056;0.000;0.000;2022-09-21T07:35:01;4.20;;;0.88;;
35977;SDS011;22056;0.000;0.000;2022-09-21T07:37:27;6.13;;;1.00;;
35977;SDS011;22056;0.000;0.000;2022-09-21T07:39:53;2.90;;;0.80;;
35977;SDS011;22056;0.000;0.000;2022-09-21T07:42:20;5.47;;;0.75;;
35977;SDS011;22056;0.000;0.000;2022-09-21T07:44:48;3.45;;;0.77;;
35977;SDS011;22056;0.000;0.000;2022-09-21T07:47:14;4.65;;;1.10;;
35977;SDS011;22056;0.000;0.000;2022-09-21T07:49:40;4.15;;;0.75;;
35977;SDS011;22056;0.000;0.000;2022-09-21T07:52:07;4.43;;;1.23;;
35977;SDS011;22056;0.000;0.000;2022-09-21T07:54:35;6.32;;;1.05;;
35977;SDS011;22056;0.000;0.000;2022-09-21T07:57:01;7.63;;;1.10;;
35977;SDS011;22056;0.000;0.000;2022-09-21T07:59:46;2.47;;;0.88;;
35977;SDS011;22056;0.000;0.000;2022-09-21T08:02:12;3.22;;;0.90;;
35977;SDS011;22056;0.000;0.000;2022-09-21T08:04:38;7.65;;;1.13;;
35977;SDS011;22056;0.000;0.000;2022-09-21T08:07:04;4.10;;;1.00;;
35977;SDS011;22056;0.000;0.000;2022-09-21T08:09:30;4.22;;;0.90;;
35977;SDS011;22056;0.000;0.000;2022-09-21T08:11:56;4.60;;;0.73;;
35977;SDS011;22056;0.000;0.000;2022-09-21T08:14:25;4.20;;;0.90;;
35977;SDS011;22056;0.000;0.000;2022-09-21T08:16:51;5.05;;;1.17;;
35977;SDS011;22056;0.000;0.000;2022-09-21T08:19:18;7.57;;;1.13;;
35977;SDS011;22056;0.000;0.000;2022-09-21T08:21:46;6.15;;;1.02;;
35977;SDS011;22056;0.000;0.000;2022-09-21T08:24:13;4.03;;;1.15;;
35977;SDS011;22056;0.000;0.000;2022-09-21T08:26:39;7.50;;;1.17;;
35977;SDS011;22056;0.000;0.000;2022-09-21T08:29:06;6.03;;;0.70;;
35977;SDS011;22056;0.000;0.000;2022-09-21T08:31:33;4.97;;;1.00;;
35977;SDS011;22056;0.000;0.000;2022-09-21T08:33:59;5.55;;;1.30;;
35977;SDS011;22056;0.000;0.000;2022-09-21T08:36:25;4.35;;;1.00;;
35977;SDS011;22056;0.000;0.000;2022-09-21T08:38:51;4.43;;;0.82;;
35977;SDS011;22056;0.000;0.000;2022-09-21T08:44:14;3.05;;;1.10;;
35977;SDS011;22056;0.000;0.000;2022-09-21T08:46:42;5.22;;;1.23;;
35977;SDS011;22056;0.000;0.000;2022-09-21T08:49:10;7.55;;;1.25;;
35977;SDS011;22056;0.000;0.000;2022-09-21T08:51:42;5.72;;;1.38;;
35977;SDS011;22056;0.000;0.000;2022-09-21T08:54:12;3.20;;;0.90;;
35977;SDS011;22056;0.000;0.000;2022-09-21T08:56:41;6.45;;;1.30;;
35977;SDS011;22056;0.000;0.000;2022-09-21T08:59:10;5.00;;;1.27;;
35977;SDS011;22056;0.000;0.000;2022-09-21T09:04:23;5.78;;;1.33;;
35977;SDS011;22056;0.000;0.000;2022-09-21T09:06:55;5.53;;;0.90;;
35977;SDS011;22056;0.000;0.000;2022-09-21T09:12:34;4.57;;;1.00;;
35977;SDS011;22056;0.000;0.000;2022-09-21T09:14:47;2.78;;;0.80;;
35977;SDS011;22056;0.000;0.000;2022-09-21T09:19:59;4.35;;;0.93;;
35977;SDS011;22056;0.000;0.000;2022-09-21T09:22:31;2.53;;;0.82;;
35977;SDS011;22056;0.000;0.000;2022-09-21T09:25:00;6.38;;;1.15;;
35977;SDS011;22056;0.000;0.000;2022-09-21T09:27:37;2.25;;;0.73;;
35977;SDS011;22056;0.000;0.000;2022-09-21T09:30:23;4.60;;;0.98;;
35977;SDS011;22056;0.000;0.000;2022-09-21T09:38:04;5.32;;;0.90;;
35977;SDS011;22056;0.000;0.000;2022-09-21T09:40:41;5.78;;;0.80;;
35977;SDS011;22056;0.000;0.000;2022-09-21T09:43:21;4.32;;;1.02;;
35977;SDS011;22056;0.000;0.000;2022-09-21T09:46:00;5.88;;;0.90;;
35977;SDS011;22056;0.000;0.000;2022-09-21T09:53:26;4.97;;;1.08;;
35977;SDS011;22056;0.000;0.000;2022-09-21T09:55:54;3.85;;;0.75;;
35977;SDS011;22056;0.000;0.000;2022-09-21T09:58:22;2.90;;;0.60;;
35977;SDS011;22056;0.000;0.000;2022-09-21T10:00:52;8.40;;;1.30;;
35977;SDS011;22056;0.000;0.000;2022-09-21T10:03:20;5.30;;;1.10;;
35977;SDS011;22056;0.000;0.000;2022-09-21T10:05:47;8.95;;;1.40;;
35977;SDS011;22056;0.000;0.000;2022-09-21T10:10:55;6.28;;;1.60;;
35977;SDS011;22056;0.000;0.000;2022-09-21T10:13:27;4.45;;;0.98;;
35977;SDS011;22056;0.000;0.000;2022-09-21T10:15:58;4.13;;;1.00;;
35977;SDS011;22056;0.000;0.000;2022-09-21T10:21:20;5.40;;;0.80;;
35977;SDS011;22056;0.000;0.000;2022-09-21T10:23:47;5.97;;;1.38;;
35977;SDS011;22056;0.000;0.000;2022-09-21T10:26:15;7.15;;;1.42;;
35977;SDS011;22056;0.000;0.000;2022-09-21T10:28:55;9.02;;;1.08;;
35977;SDS011;22056;0.000;0.000;2022-09-21T10:31:22;4.57;;;1.33;;
35977;SDS011;22056;0.000;0.000;2022-09-21T10:36:28;4.95;;;1.23;;
35977;SDS011;22056;0.000;0.000;2022-09-21T10:38:57;3.35;;;0.82;;
35977;SDS011;22056;0.000;0.000;2022-09-21T10:41:35;6.75;;;0.82;;
35977;SDS011;22056;0.000;0.000;2022-09-21T10:44:02;2.70;;;0.95;;
35977;SDS011;22056;0.000;0.000;2022-09-21T10:46:33;1.40;;;0.68;;
35977;SDS011;22056;0.000;0.000;2022-09-21T10:49:01;4.35;;;0.90;;
35977;SDS011;22056;0.000;0.000;2022-09-21T10:51:28;3.75;;;0.95;;
35977;SDS011;22056;0.000;0.000;2022-09-21T10:53:55;5.15;;;1.10;;
35977;SDS011;22056;0.000;0.000;2022-09-21T10:56:22;5.70;;;0.93;;
35977;SDS011;22056;0.000;0.000;2022-09-21T11:01:33;4.75;;;1.13;;
35977;SDS011;22056;0.000;0.000;2022-09-21T11:06:36;5.55;;;0.60;;
35977;SDS011;22056;0.000;0.000;2022-09-21T11:09:13;6.53;;;1.00;;
35977;SDS011;22056;0.000;0.000;2022-09-21T11:17:10;3.42;;;0.88;;
35977;SDS011;22056;0.000;0.000;2022-09-21T11:22:07;5.80;;;0.90;;
35977;SDS011;22056;0.000;0.000;2022-09-21T11:29:46;3.50;;;0.82;;
35977;SDS011;22056;0.000;0.000;2022-09-21T11:36:01;5.78;;;0.93;;
35977;SDS011;22056;0.000;0.000;2022-09-21T11:38:01;5.85;;;1.20;;
35977;SDS011;22056;0.000;0.000;2022-09-21T11:45:25;3.53;;;1.02;;
35977;SDS011;22056;0.000;0.000;2022-09-21T11:48:07;10.88;;;0.90;;
35977;SDS011;22056;0.000;0.000;2022-09-21T11:53:12;5.80;;;1.00;;
35977;SDS011;22056;0.000;0.000;2022-09-21T12:14:02;4.97;;;0.90;;
35977;SDS011;22056;0.000;0.000;2022-09-21T12:16:34;5.20;;;1.17;;
35977;SDS011;22056;0.000;0.000;2022-09-21T12:19:21;5.05;;;1.00;;
35977;SDS011;22056;0.000;0.000;2022-09-21T12:21:50;8.35;;;1.10;;
35977;SDS011;22056;0.000;0.000;2022-09-21T12:24:26;3.30;;;0.70;;
35977;SDS011;22056;0.000;0.000;2022-09-21T12:26:55;5.20;;;1.10;;
35977;SDS011;22056;0.000;0.000;2022-09-21T12:32:03;4.28;;;0.95;;
35977;SDS011;22056;0.000;0.000;2022-09-21T12:34:33;5.55;;;0.88;;
35977;SDS011;22056;0.000;0.000;2022-09-21T12:39:42;5.43;;;1.10;;
35977;SDS011;22056;0.000;0.000;2022-09-21T12:44:59;6.03;;;0.90;;
35977;SDS011;22056;0.000;0.000;2022-09-21T12:47:40;23.77;;;2.40;;
35977;SDS011;22056;0.000;0.000;2022-09-21T12:52:55;12.65;;;2.20;;
35977;SDS011;22056;0.000;0.000;2022-09-21T12:55:25;15.25;;;2.25;;
35977;SDS011;22056;0.000;0.000;2022-09-21T12:58:12;19.58;;;2.70;;
35977;SDS011;22056;0.000;0.000;2022-09-21T13:03:42;11.82;;;1.45;;
35977;SDS011;22056;0.000;0.000;2022-09-21T13:06:20;5.22;;;1.23;;
35977;SDS011;22056;0.000;0.000;2022-09-21T13:08:53;10.88;;;1.58;;
35977;SDS011;22056;0.000;0.000;2022-09-21T13:11:20;7.70;;;1.00;;
35977;SDS011;22056;0.000;0.000;2022-09-21T13:13:48;6.47;;;1.20;;
35977;SDS011;22056;0.000;0.000;2022-09-21T13:16:36;7.22;;;0.85;;
35977;SDS011;22056;0.000;0.000;2022-09-21T13:21:38;5.55;;;1.10;;
35977;SDS011;22056;0.000;0.000;2022-09-21T13:24:05;4.50;;;1.05;;
35977;SDS011;22056;0.000;0.000;2022-09-21T13:26:42;6.57;;;0.90;;
35977;SDS011;22056;0.000;0.000;2022-09-21T13:34:24;2.92;;;0.98;;
35977;SDS011;22056;0.000;0.000;2022-09-21T13:44:52;5.45;;;0.90;;
35977;SDS011;22056;0.000;0.000;2022-09-21T13:47:38;6.90;;;1.00;;
35977;SDS011;22056;0.000;0.000;2022-09-21T13:50:23;5.57;;;1.05;;
35977;SDS011;22056;0.000;0.000;2022-09-21T13:52:53;4.05;;;0.95;;
35977;SDS011;22056;0.000;0.000;2022-09-21T13:55:38;10.90;;;1.42;;
35977;SDS011;22056;0.000;0.000;2022-09-21T14:00:53;2.70;;;0.73;;
35977;SDS011;22056;0.000;0.000;2022-09-21T14:03:25;5.45;;;0.80;;
35977;SDS011;22056;0.000;0.000;2022-09-21T14:05:59;7.10;;;1.20;;
35977;SDS011;22056;0.000;0.000;2022-09-21T14:08:30;4.45;;;1.00;;
35977;SDS011;22056;0.000;0.000;2022-09-21T14:11:02;8.23;;;1.17;;
35977;SDS011;22056;0.000;0.000;2022-09-21T14:13:35;8.27;;;1.00;;
35977;SDS011;22056;0.000;0.000;2022-09-21T14:24:38;5.00;;;1.10;;
35977;SDS011;22056;0.000;0.000;2022-09-21T14:29:49;3.55;;;1.00;;
35977;SDS011;22056;0.000;0.000;2022-09-21T14:32:18;5.68;;;1.08;;
35977;SDS011;22056;0.000;0.000;2022-09-21T14:34:46;9.95;;;1.10;;
35977;SDS011;22056;0.000;0.000;2022-09-21T14:37:56;4.47;;;1.10;;
35977;SDS011;22056;0.000;0.000;2022-09-21T14:40:03;4.88;;;1.08;;
35977;SDS011;22056;0.000;0.000;2022-09-21T14:42:32;4.85;;;1.25;;
35977;SDS011;22056;0.000;0.000;2022-09-21T14:44:58;8.25;;;1.08;;
35977;SDS011;22056;0.000;0.000;2022-09-21T14:47:36;6.30;;;1.60;;
35977;SDS011;22056;0.000;0.000;2022-09-21T15:00:21;6.28;;;1.27;;
35977;SDS011;22056;0.000;0.000;2022-09-21T15:05:28;6.60;;;1.13;;
35977;SDS011;22056;0.000;0.000;2022-09-21T15:08:04;8.20;;;1.63;;
35977;SDS011;22056;0.000;0.000;2022-09-21T15:13:45;9.52;;;1.33;;
35977;SDS011;22056;0.000;0.000;2022-09-21T15:16:17;5.07;;;1.35;;
35977;SDS011;22056;0.000;0.000;2022-09-21T15:18:46;9.40;;;1.60;;
35977;SDS011;22056;0.000;0.000;2022-09-21T15:21:20;6.50;;;1.10;;
35977;SDS011;22056;0.000;0.000;2022-09-21T15:23:48;5.57;;;1.00;;
35977;SDS011;22056;0.000;0.000;2022-09-21T15:26:16;5.35;;;1.10;;
35977;SDS011;22056;0.000;0.000;2022-09-21T15:28:45;4.78;;;1.00;;
35977;SDS011;22056;0.000;0.000;2022-09-21T15:31:14;4.05;;;1.10;;
35977;SDS011;22056;0.000;0.000;2022-09-21T15:33:41;8.73;;;1.20;;
35977;SDS011;22056;0.000;0.000;2022-09-21T15:36:20;3.80;;;1.10;;
35977;SDS011;22056;0.000;0.000;2022-09-21T15:38:48;6.97;;;1.20;;
35977;SDS011;22056;0.000;0.000;2022-09-21T15:44:11;5.25;;;1.20;;
35977;SDS011;22056;0.000;0.000;2022-09-21T15:46:38;6.38;;;1.10;;
35977;SDS011;22056;0.000;0.000;2022-09-21T15:49:14;4.18;;;0.90;;
35977;SDS011;22056;0.000;0.000;2022-09-21T15:51:44;5.25;;;1.13;;
35977;SDS011;22056;0.000;0.000;2022-09-21T15:56:59;3.83;;;0.80;;
35977;SDS011;22056;0.000;0.000;2022-09-21T15:59:26;5.32;;;0.98;;
35977;SDS011;22056;0.000;0.000;2022-09-21T16:01:55;5.88;;;1.00;;
35977;SDS011;22056;0.000;0.000;2022-09-21T16:04:22;3.17;;;0.80;;
35977;SDS011;22056;0.000;0.000;2022-09-21T16:11:51;3.65;;;0.88;;
35977;SDS011;22056;0.000;0.000;2022-09-21T16:14:18;3.85;;;0.90;;
35977;SDS011;22056;0.000;0.000;2022-09-21T16:22:11;7.35;;;0.93;;
35977;SDS011;22056;0.000;0.000;2022-09-21T16:24:48;6.15;;;1.05;;
35977;SDS011;22056;0.000;0.000;2022-09-21T16:27:16;5.60;;;1.35;;
35977;SDS011;22056;0.000;0.000;2022-09-21T16:29:43;9.18;;;1.20;;
35977;SDS011;22056;0.000;0.000;2022-09-21T16:34:43;3.97;;;1.05;;
35977;SDS011;22056;0.000;0.000;2022-09-21T16:39:55;2.55;;;0.80;;
35977;SDS011;22056;0.000;0.000;2022-09-21T16:42:22;3.10;;;0.75;;
35977;SDS011;22056;0.000;0.000;2022-09-21T16:44:51;3.40;;;1.10;;
35977;SDS011;22056;0.000;0.000;2022-09-21T16:47:19;3.22;;;1.05;;
35977;SDS011;22056;0.000;0.000;2022-09-21T16:49:52;7.82;;;1.27;;
35977;SDS011;22056;0.000;0.000;2022-09-21T16:52:20;3.22;;;0.80;;
35977;SDS011;22056;0.000;0.000;2022-09-21T16:54:47;3.72;;;0.80;;
35977;SDS011;22056;0.000;0.000;2022-09-21T16:57:14;2.28;;;0.70;;
35977;SDS011;22056;0.000;0.000;2022-09-21T16:59:40;4.82;;;1.40;;
35977;SDS011;22056;0.000;0.000;2022-09-21T17:02:08;3.60;;;0.90;;
35977;SDS011;22056;0.000;0.000;2022-09-21T17:04:36;2.92;;;0.75;;
35977;SDS011;22056;0.000;0.000;2022-09-21T17:07:03;4.75;;;0.90;;
35977;SDS011;22056;0.000;0.000;2022-09-21T17:09:30;3.40;;;1.00;;
35977;SDS011;22056;0.000;0.000;2022-09-21T17:11:57;3.72;;;0.90;;
35977;SDS011;22056;0.000;0.000;2022-09-21T17:14:25;5.90;;;0.90;;
35977;SDS011;22056;0.000;0.000;2022-09-21T17:16:52;6.45;;;1.15;;
35977;SDS011;22056;0.000;0.000;2022-09-21T17:19:20;4.43;;;1.30;;
35977;SDS011;22056;0.000;0.000;2022-09-21T17:21:46;4.25;;;0.77;;
35977;SDS011;22056;0.000;0.000;2022-09-21T17:24:12;4.93;;;0.80;;
35977;SDS011;22056;0.000;0.000;2022-09-21T17:26:40;3.25;;;0.95;;
35977;SDS011;22056;0.000;0.000;2022-09-21T17:29:24;3.75;;;1.00;;
35977;SDS011;22056;0.000;0.000;2022-09-21T17:31:53;3.85;;;1.05;;
35977;SDS011;22056;0.000;0.000;2022-09-21T17:34:24;3.80;;;0.80;;
35977;SDS011;22056;0.000;0.000;2022-09-21T17:36:51;2.55;;;1.05;;
35977;SDS011;22056;0.000;0.000;2022-09-21T17:39:17;3.42;;;1.17;;
35977;SDS011;22056;0.000;0.000;2022-09-21T17:41:51;4.13;;;0.98;;
35977;SDS011;22056;0.000;0.000;2022-09-21T17:47:26;3.60;;;0.93;;
35977;SDS011;22056;0.000;0.000;2022-09-21T17:52:41;2.53;;;0.70;;
35977;SDS011;22056;0.000;0.000;2022-09-21T17:55:26;2.90;;;0.90;;
35977;SDS011;22056;0.000;0.000;2022-09-21T18:00:24;1.52;;;0.80;;
35977;SDS011;22056;0.000;0.000;2022-09-21T18:02:52;5.45;;;1.15;;
35977;SDS011;22056;0.000;0.000;2022-09-21T18:05:26;3.47;;;0.90;;
35977;SDS011;22056;0.000;0.000;2022-09-21T18:07:52;1.38;;;0.93;;
35977;SDS011;22056;0.000;0.000;2022-09-21T18:10:19;2.13;;;0.75;;
35977;SDS011;22056;0.000;0.000;2022-09-21T18:20:52;5.00;;;1.10;;
35977;SDS011;22056;0.000;0.000;2022-09-21T18:23:21;3.17;;;0.80;;
35977;SDS011;22056;0.000;0.000;2022-09-21T18:25:50;3.95;;;1.15;;
35977;SDS011;22056;0.000;0.000;2022-09-21T18:28:20;2.58;;;0.82;;
35977;SDS011;22056;0.000;0.000;2022-09-21T18:30:55;2.03;;;0.60;;
35977;SDS011;22056;0.000;0.000;2022-09-21T18:33:32;2.85;;;0.85;;
35977;SDS011;22056;0.000;0.000;2022-09-21T18:36:05;3.78;;;0.70;;
35977;SDS011;22056;0.000;0.000;2022-09-21T18:38:36;5.32;;;1.05;;
35977;SDS011;22056;0.000;0.000;2022-09-21T18:48:57;3.10;;;1.13;;
35977;SDS011;22056;0.000;0.000;2022-09-21T18:54:17;2.50;;;0.77;;
35977;SDS011;22056;0.000;0.000;2022-09-21T18:56:44;4.35;;;1.05;;